sensor_id;sensor_type;location;lat;lon;timestamp;pressure;altitude;pressure_sealevel;temperature;humidity
30339;BME280;795;49.296;11.348;2022-08-07T00:01:14;97056.13;;;15.61;60.64
30339;BME280;795;49.296;11.348;2022-08-07T00:04:03;97051.72;;;15.60;60.61
30339;BME280;795;49.296;11.348;2022-08-07T00:06:32;97051.28;;;15.57;60.66
30339;BME280;795;49.296;11.348;2022-08-07T00:09:01;97054.72;;;15.51;60.69
30339;BME280;795;49.296;11.348;2022-08-07T00:11:47;97065.25;;;15.46;61.21
30339;BME280;795;49.296;11.348;2022-08-07T00:14:26;97050.03;;;15.45;60.93
30339;BME280;795;49.296;11.348;2022-08-07T00:17:01;97059.66;;;15.47;60.70
30339;BME280;795;49.296;11.348;2022-08-07T00:19:31;97055.59;;;15.43;60.70
30339;BME280;795;49.296;11.348;2022-08-07T00:22:19;97050.72;;;15.39;61.20
30339;BME280;795;49.296;11.348;2022-08-07T00:25:09;97056.50;;;15.36;61.08
30339;BME280;795;49.296;11.348;2022-08-07T00:27:43;97062.00;;;15.27;61.47
30339;BME280;795;49.296;11.348;2022-08-07T00:30:21;97048.91;;;15.16;62.15
30339;BME280;795;49.296;11.348;2022-08-07T00:32:59;97051.78;;;15.15;61.79
30339;BME280;795;49.296;11.348;2022-08-07T00:35:29;97070.28;;;15.26;61.20
30339;BME280;795;49.296;11.348;2022-08-07T00:37:58;97050.41;;;15.19;61.46
30339;BME280;795;49.296;11.348;2022-08-07T00:40:27;97054.31;;;15.16;61.39
30339;BME280;795;49.296;11.348;2022-08-07T00:43:10;97057.41;;;15.13;61.53
30339;BME280;795;49.296;11.348;2022-08-07T00:46:00;97054.84;;;15.12;61.37
30339;BME280;795;49.296;11.348;2022-08-07T00:48:28;97051.97;;;15.13;61.41
30339;BME280;795;49.296;11.348;2022-08-07T00:50:59;97055.41;;;15.07;62.00
30339;BME280;795;49.296;11.348;2022-08-07T00:53:27;97058.75;;;15.09;61.84
30339;BME280;795;49.296;11.348;2022-08-07T00:56:14;97059.13;;;15.06;61.68
30339;BME280;795;49.296;11.348;2022-08-07T00:58:43;97055.91;;;15.11;61.21
30339;BME280;795;49.296;11.348;2022-08-07T01:01:17;97058.59;;;15.11;60.89
30339;BME280;795;49.296;11.348;2022-08-07T01:03:48;97059.41;;;15.11;60.88
30339;BME280;795;49.296;11.348;2022-08-07T01:06:27;97061.97;;;15.13;60.24
30339;BME280;795;49.296;11.348;2022-08-07T01:08:57;97055.00;;;15.18;60.03
30339;BME280;795;49.296;11.348;2022-08-07T01:11:31;97061.97;;;15.13;60.64
30339;BME280;795;49.296;11.348;2022-08-07T01:14:23;97060.16;;;15.05;60.89
30339;BME280;795;49.296;11.348;2022-08-07T01:16:55;97067.13;;;15.00;61.02
30339;BME280;795;49.296;11.348;2022-08-07T01:19:26;97061.53;;;15.01;61.09
30339;BME280;795;49.296;11.348;2022-08-07T01:21:59;97059.56;;;14.95;61.67
30339;BME280;795;49.296;11.348;2022-08-07T01:24:30;97047.34;;;14.99;61.10
30339;BME280;795;49.296;11.348;2022-08-07T01:27:12;97056.84;;;14.95;61.65
30339;BME280;795;49.296;11.348;2022-08-07T01:29:47;97059.44;;;14.89;62.00
30339;BME280;795;49.296;11.348;2022-08-07T01:32:16;97047.13;;;14.86;61.48
30339;BME280;795;49.296;11.348;2022-08-07T01:34:44;97050.81;;;14.85;61.49
30339;BME280;795;49.296;11.348;2022-08-07T01:37:15;97051.38;;;14.81;61.91
30339;BME280;795;49.296;11.348;2022-08-07T01:39:45;97058.88;;;14.71;62.59
30339;BME280;795;49.296;11.348;2022-08-07T01:42:15;97073.28;;;14.63;62.80
30339;BME280;795;49.296;11.348;2022-08-07T01:45:06;97063.88;;;14.51;63.89
30339;BME280;795;49.296;11.348;2022-08-07T01:47:42;97063.75;;;14.44;64.11
30339;BME280;795;49.296;11.348;2022-08-07T01:50:31;97064.81;;;14.35;64.66
30339;BME280;795;49.296;11.348;2022-08-07T01:53:02;97061.63;;;14.32;64.45
30339;BME280;795;49.296;11.348;2022-08-07T01:55:46;97060.94;;;14.38;63.83
30339;BME280;795;49.296;11.348;2022-08-07T01:58:21;97056.16;;;14.48;63.60
30339;BME280;795;49.296;11.348;2022-08-07T02:01:03;97063.22;;;14.49;63.37
30339;BME280;795;49.296;11.348;2022-08-07T02:03:44;97058.53;;;14.43;63.51
30339;BME280;795;49.296;11.348;2022-08-07T02:06:21;97049.78;;;14.41;63.53
30339;BME280;795;49.296;11.348;2022-08-07T02:09:04;97051.50;;;14.34;64.15
30339;BME280;795;49.296;11.348;2022-08-07T02:11:38;97043.41;;;14.34;64.35
30339;BME280;795;49.296;11.348;2022-08-07T02:14:27;97031.09;;;14.31;64.29
30339;BME280;795;49.296;11.348;2022-08-07T02:17:03;97032.75;;;14.24;65.12
30339;BME280;795;49.296;11.348;2022-08-07T02:19:34;97033.97;;;14.22;64.33
30339;BME280;795;49.296;11.348;2022-08-07T02:22:25;97037.16;;;14.25;64.46
30339;BME280;795;49.296;11.348;2022-08-07T02:24:56;97028.69;;;14.28;64.49
30339;BME280;795;49.296;11.348;2022-08-07T02:27:28;97033.78;;;14.23;64.57
30339;BME280;795;49.296;11.348;2022-08-07T02:30:04;97033.44;;;14.26;64.17
30339;BME280;795;49.296;11.348;2022-08-07T02:32:35;97029.22;;;14.32;63.70
30339;BME280;795;49.296;11.348;2022-08-07T02:35:08;97030.06;;;14.24;64.55
30339;BME280;795;49.296;11.348;2022-08-07T02:37:40;97020.75;;;14.27;63.95
30339;BME280;795;49.296;11.348;2022-08-07T02:40:11;97026.22;;;14.19;64.23
30339;BME280;795;49.296;11.348;2022-08-07T02:43:00;97028.28;;;14.09;65.21
30339;BME280;795;49.296;11.348;2022-08-07T02:45:39;97030.69;;;14.04;65.59
30339;BME280;795;49.296;11.348;2022-08-07T02:48:27;97021.25;;;14.00;65.77
30339;BME280;795;49.296;11.348;2022-08-07T02:50:59;97023.31;;;13.89;66.64
30339;BME280;795;49.296;11.348;2022-08-07T02:53:34;97023.47;;;13.88;66.72
30339;BME280;795;49.296;11.348;2022-08-07T02:56:17;97008.78;;;13.90;66.31
30339;BME280;795;49.296;11.348;2022-08-07T02:58:52;97021.63;;;13.88;66.64
30339;BME280;795;49.296;11.348;2022-08-07T03:01:25;97008.84;;;13.82;66.87
30339;BME280;795;49.296;11.348;2022-08-07T03:04:09;97013.38;;;13.82;67.23
30339;BME280;795;49.296;11.348;2022-08-07T03:06:45;97015.94;;;13.75;67.75
30339;BME280;795;49.296;11.348;2022-08-07T03:09:15;97004.81;;;13.70;67.58
30339;BME280;795;49.296;11.348;2022-08-07T03:12:06;97017.16;;;13.65;68.13
30339;BME280;795;49.296;11.348;2022-08-07T03:14:50;97017.34;;;13.63;68.29
30339;BME280;795;49.296;11.348;2022-08-07T03:17:19;97017.66;;;13.60;68.81
30339;BME280;795;49.296;11.348;2022-08-07T03:19:49;97013.97;;;13.53;69.07
30339;BME280;795;49.296;11.348;2022-08-07T03:22:23;97011.94;;;13.55;69.01
30339;BME280;795;49.296;11.348;2022-08-07T03:24:58;97008.94;;;13.42;70.22
30339;BME280;795;49.296;11.348;2022-08-07T03:27:27;97012.16;;;13.38;70.24
30339;BME280;795;49.296;11.348;2022-08-07T03:29:58;97022.78;;;13.31;71.11
30339;BME280;795;49.296;11.348;2022-08-07T03:32:40;97014.38;;;13.26;71.53
30339;BME280;795;49.296;11.348;2022-08-07T03:35:28;97011.16;;;13.22;71.80
30339;BME280;795;49.296;11.348;2022-08-07T03:38:18;97010.69;;;13.19;71.68
30339;BME280;795;49.296;11.348;2022-08-07T03:40:55;97021.63;;;13.17;71.95
30339;BME280;795;49.296;11.348;2022-08-07T03:43:25;97013.38;;;13.11;72.41
30339;BME280;795;49.296;11.348;2022-08-07T03:46:02;97010.84;;;13.09;72.86
30339;BME280;795;49.296;11.348;2022-08-07T03:48:38;97017.75;;;13.12;73.06
30339;BME280;795;49.296;11.348;2022-08-07T03:51:27;97010.34;;;13.14;73.05
30339;BME280;795;49.296;11.348;2022-08-07T03:54:13;97012.38;;;13.12;72.71
30339;BME280;795;49.296;11.348;2022-08-07T03:57:03;97012.38;;;13.12;72.90
30339;BME280;795;49.296;11.348;2022-08-07T03:59:33;97013.56;;;13.09;73.17
30339;BME280;795;49.296;11.348;2022-08-07T04:02:01;97014.03;;;13.13;72.77
30339;BME280;795;49.296;11.348;2022-08-07T04:04:29;97021.63;;;13.09;72.77
30339;BME280;795;49.296;11.348;2022-08-07T04:06:58;97017.91;;;13.10;73.02
30339;BME280;795;49.296;11.348;2022-08-07T04:09:28;97024.81;;;13.05;73.90
30339;BME280;795;49.296;11.348;2022-08-07T04:12:16;97020.97;;;13.07;73.08
30339;BME280;795;49.296;11.348;2022-08-07T04:14:57;97028.22;;;13.07;73.22
30339;BME280;795;49.296;11.348;2022-08-07T04:17:26;97027.50;;;13.13;73.34
30339;BME280;795;49.296;11.348;2022-08-07T04:20:13;97023.31;;;13.10;73.25
30339;BME280;795;49.296;11.348;2022-08-07T04:22:42;97030.22;;;13.13;73.07
30339;BME280;795;49.296;11.348;2022-08-07T04:25:22;97030.22;;;13.13;73.02
30339;BME280;795;49.296;11.348;2022-08-07T04:27:50;97031.56;;;13.17;73.01
30339;BME280;795;49.296;11.348;2022-08-07T04:30:26;97036.78;;;13.18;73.37
30339;BME280;795;49.296;11.348;2022-08-07T04:33:15;97027.69;;;13.19;72.39
30339;BME280;795;49.296;11.348;2022-08-07T04:35:45;97032.72;;;13.22;73.08
30339;BME280;795;49.296;11.348;2022-08-07T04:38:18;97033.25;;;13.26;72.24
30339;BME280;795;49.296;11.348;2022-08-07T04:40:46;97033.41;;;13.32;72.04
30339;BME280;795;49.296;11.348;2022-08-07T04:43:32;97035.56;;;13.37;71.47
30339;BME280;795;49.296;11.348;2022-08-07T04:46:46;97046.88;;;13.41;71.11
30339;BME280;795;49.296;11.348;2022-08-07T04:50:02;97048.72;;;13.48;71.51
30339;BME280;795;49.296;11.348;2022-08-07T04:53:06;97045.66;;;13.59;70.68
30339;BME280;795;49.296;11.348;2022-08-07T04:56:21;97052.22;;;13.65;70.84
30339;BME280;795;49.296;11.348;2022-08-07T04:59:22;97055.56;;;13.75;70.23
30339;BME280;795;49.296;11.348;2022-08-07T05:02:23;97052.03;;;13.82;70.06
30339;BME280;795;49.296;11.348;2022-08-07T05:05:32;97055.38;;;13.92;68.95
30339;BME280;795;49.296;11.348;2022-08-07T05:08:43;97053.28;;;14.03;68.86
30339;BME280;795;49.296;11.348;2022-08-07T05:11:37;97051.22;;;14.13;68.22
30339;BME280;795;49.296;11.348;2022-08-07T05:14:40;97044.59;;;14.23;68.00
30339;BME280;795;49.296;11.348;2022-08-07T05:17:27;97043.75;;;14.31;68.17
30339;BME280;795;49.296;11.348;2022-08-07T05:20:24;97040.63;;;14.42;67.25
30339;BME280;795;49.296;11.348;2022-08-07T05:23:01;97047.16;;;14.55;67.09
30339;BME280;795;49.296;11.348;2022-08-07T05:25:32;97041.34;;;14.67;66.42
30339;BME280;795;49.296;11.348;2022-08-07T05:28:22;97046.69;;;14.75;65.97
30339;BME280;795;49.296;11.348;2022-08-07T05:30:56;97038.16;;;14.86;65.21
30339;BME280;795;49.296;11.348;2022-08-07T05:33:28;97040.91;;;15.00;65.25
30339;BME280;795;49.296;11.348;2022-08-07T05:35:57;97038.47;;;15.51;63.52
30339;BME280;795;49.296;11.348;2022-08-07T05:38:27;97043.56;;;16.12;60.55
30339;BME280;795;49.296;11.348;2022-08-07T05:41:16;97044.59;;;16.62;59.15
30339;BME280;795;49.296;11.348;2022-08-07T05:43:53;97045.13;;;16.72;58.41
30339;BME280;795;49.296;11.348;2022-08-07T05:46:41;97050.97;;;16.90;57.39
30339;BME280;795;49.296;11.348;2022-08-07T05:49:11;97045.44;;;16.98;56.91
30339;BME280;795;49.296;11.348;2022-08-07T05:51:45;97051.09;;;17.03;56.95
30339;BME280;795;49.296;11.348;2022-08-07T05:54:16;97048.91;;;17.34;56.06
30339;BME280;795;49.296;11.348;2022-08-07T05:56:59;97058.22;;;17.46;56.38
30339;BME280;795;49.296;11.348;2022-08-07T05:59:35;97048.25;;;17.81;55.54
30339;BME280;795;49.296;11.348;2022-08-07T06:02:26;97042.09;;;17.94;54.71
30339;BME280;795;49.296;11.348;2022-08-07T06:05:04;97055.28;;;18.31;53.85
30339;BME280;795;49.296;11.348;2022-08-07T06:07:34;97055.28;;;18.37;53.08
30339;BME280;795;49.296;11.348;2022-08-07T06:10:22;97053.19;;;18.39;53.67
30339;BME280;795;49.296;11.348;2022-08-07T06:12:50;97058.00;;;18.37;53.58
30339;BME280;795;49.296;11.348;2022-08-07T06:15:19;97049.97;;;18.57;52.97
30339;BME280;795;49.296;11.348;2022-08-07T06:17:47;97051.19;;;18.48;53.05
30339;BME280;795;49.296;11.348;2022-08-07T06:20:23;97050.53;;;19.06;51.82
30339;BME280;795;49.296;11.348;2022-08-07T06:23:11;97049.44;;;18.88;52.31
30339;BME280;795;49.296;11.348;2022-08-07T06:25:59;97048.25;;;19.03;52.24
30339;BME280;795;49.296;11.348;2022-08-07T06:28:27;97052.50;;;19.39;51.14
30339;BME280;795;49.296;11.348;2022-08-07T06:30:55;97050.63;;;19.46;51.21
30339;BME280;795;49.296;11.348;2022-08-07T06:33:24;97058.38;;;19.49;51.53
30339;BME280;795;49.296;11.348;2022-08-07T06:35:52;97061.31;;;19.80;50.94
30339;BME280;795;49.296;11.348;2022-08-07T06:38:41;97058.94;;;20.03;50.06
30339;BME280;795;49.296;11.348;2022-08-07T06:41:44;97064.22;;;19.72;50.78
30339;BME280;795;49.296;11.348;2022-08-07T06:44:29;97067.53;;;20.13;49.95
30339;BME280;795;49.296;11.348;2022-08-07T06:47:03;97067.78;;;20.05;50.20
30339;BME280;795;49.296;11.348;2022-08-07T06:49:39;97066.69;;;20.19;50.28
30339;BME280;795;49.296;11.348;2022-08-07T06:52:21;97058.53;;;20.19;50.03
30339;BME280;795;49.296;11.348;2022-08-07T06:55:22;97061.88;;;20.15;50.72
30339;BME280;795;49.296;11.348;2022-08-07T06:58:13;97073.56;;;21.05;48.70
30339;BME280;795;49.296;11.348;2022-08-07T07:00:44;97067.25;;;21.11;48.22
30339;BME280;795;49.296;11.348;2022-08-07T07:03:12;97066.31;;;20.80;48.39
30339;BME280;795;49.296;11.348;2022-08-07T07:05:44;97065.44;;;20.86;48.70
30339;BME280;795;49.296;11.348;2022-08-07T07:08:32;97058.75;;;21.20;48.10
30339;BME280;795;49.296;11.348;2022-08-07T07:11:03;97061.34;;;20.64;49.57
30339;BME280;795;49.296;11.348;2022-08-07T07:13:54;97058.72;;;21.57;47.26
30339;BME280;795;49.296;11.348;2022-08-07T07:16:35;97060.28;;;21.15;47.03
30339;BME280;795;49.296;11.348;2022-08-07T07:19:24;97060.22;;;21.85;45.43
30339;BME280;795;49.296;11.348;2022-08-07T07:22:16;97058.88;;;21.38;45.61
30339;BME280;795;49.296;11.348;2022-08-07T07:25:06;97054.38;;;21.50;45.11
30339;BME280;795;49.296;11.348;2022-08-07T07:31:36;97057.03;;;21.56;44.85
30339;BME280;795;49.296;11.348;2022-08-07T07:34:21;97058.94;;;21.56;44.68
30339;BME280;795;49.296;11.348;2022-08-07T07:37:02;97055.59;;;21.78;43.97
30339;BME280;795;49.296;11.348;2022-08-07T07:39:53;97054.25;;;21.94;44.68
30339;BME280;795;49.296;11.348;2022-08-07T07:42:25;97047.03;;;22.00;43.45
30339;BME280;795;49.296;11.348;2022-08-07T07:45:05;97054.06;;;22.14;43.46
30339;BME280;795;49.296;11.348;2022-08-07T07:47:40;97048.88;;;22.96;41.46
30339;BME280;795;49.296;11.348;2022-08-07T07:50:22;97043.69;;;23.06;41.36
30339;BME280;795;49.296;11.348;2022-08-07T07:53:09;97039.72;;;22.55;41.32
30339;BME280;795;49.296;11.348;2022-08-07T07:55:57;97040.88;;;22.04;40.39
30339;BME280;795;49.296;11.348;2022-08-07T07:58:35;97039.53;;;22.31;40.78
30339;BME280;795;49.296;11.348;2022-08-07T08:03:51;97036.91;;;22.61;40.77
30339;BME280;795;49.296;11.348;2022-08-07T08:06:42;97029.16;;;22.76;40.72
30339;BME280;795;49.296;11.348;2022-08-07T08:09:24;97024.34;;;23.20;39.51
30339;BME280;795;49.296;11.348;2022-08-07T08:11:57;97022.50;;;23.13;37.93
30339;BME280;795;49.296;11.348;2022-08-07T08:14:33;97034.78;;;22.81;38.33
30339;BME280;795;49.296;11.348;2022-08-07T08:17:07;97032.84;;;22.82;39.35
30339;BME280;795;49.296;11.348;2022-08-07T08:20:05;97032.78;;;22.70;38.86
30339;BME280;795;49.296;11.348;2022-08-07T08:22:52;97025.53;;;22.94;38.44
30339;BME280;795;49.296;11.348;2022-08-07T08:25:43;97028.16;;;23.30;37.24
30339;BME280;795;49.296;11.348;2022-08-07T08:28:42;97016.44;;;23.11;37.96
30339;BME280;795;49.296;11.348;2022-08-07T08:31:27;97021.69;;;23.13;38.45
30339;BME280;795;49.296;11.348;2022-08-07T08:34:20;97028.16;;;23.60;37.39
30339;BME280;795;49.296;11.348;2022-08-07T08:36:57;97030.25;;;24.11;35.93
30339;BME280;795;49.296;11.348;2022-08-07T08:39:27;97014.00;;;23.98;35.86
30339;BME280;795;49.296;11.348;2022-08-07T08:42:31;97016.47;;;23.64;36.62
30339;BME280;795;49.296;11.348;2022-08-07T08:45:42;97015.97;;;23.44;36.66
30339;BME280;795;49.296;11.348;2022-08-07T08:48:43;97014.47;;;23.95;36.47
30339;BME280;795;49.296;11.348;2022-08-07T08:51:38;97013.28;;;24.02;36.03
30339;BME280;795;49.296;11.348;2022-08-07T08:54:42;97013.78;;;24.11;36.08
30339;BME280;795;49.296;11.348;2022-08-07T08:57:51;97016.91;;;24.89;34.55
30339;BME280;795;49.296;11.348;2022-08-07T09:00:25;97016.97;;;24.42;35.23
30339;BME280;795;49.296;11.348;2022-08-07T09:03:33;97023.72;;;25.15;34.42
30339;BME280;795;49.296;11.348;2022-08-07T09:07:15;97013.50;;;25.88;33.07
30339;BME280;795;49.296;11.348;2022-08-07T09:10:41;97006.47;;;26.30;32.34
30339;BME280;795;49.296;11.348;2022-08-07T09:17:10;97007.22;;;26.64;31.44
30339;BME280;795;49.296;11.348;2022-08-07T09:20:14;97013.47;;;26.60;31.47
30339;BME280;795;49.296;11.348;2022-08-07T09:26:42;97003.88;;;26.62;31.81
30339;BME280;795;49.296;11.348;2022-08-07T09:29:55;97004.38;;;27.24;30.74
30339;BME280;795;49.296;11.348;2022-08-07T09:33:22;97000.56;;;26.82;31.26
30339;BME280;795;49.296;11.348;2022-08-07T09:36:37;97010.72;;;26.76;31.16
30339;BME280;795;49.296;11.348;2022-08-07T09:42:42;97000.13;;;27.65;30.70
30339;BME280;795;49.296;11.348;2022-08-07T09:49:27;96984.16;;;26.49;30.42
30339;BME280;795;49.296;11.348;2022-08-07T09:55:21;96997.81;;;27.89;28.85
30339;BME280;795;49.296;11.348;2022-08-07T09:58:45;96988.59;;;27.73;29.31
30339;BME280;795;49.296;11.348;2022-08-07T10:05:11;96988.72;;;27.30;29.29
30339;BME280;795;49.296;11.348;2022-08-07T10:08:45;96986.91;;;28.41;27.42
30339;BME280;795;49.296;11.348;2022-08-07T10:12:04;96978.91;;;28.49;27.58
30339;BME280;795;49.296;11.348;2022-08-07T10:18:34;96974.31;;;27.49;27.82
30339;BME280;795;49.296;11.348;2022-08-07T10:21:38;96970.13;;;27.20;27.76
30339;BME280;795;49.296;11.348;2022-08-07T10:41:35;96936.13;;;27.68;28.22
30339;BME280;795;49.296;11.348;2022-08-07T10:44:53;96947.66;;;29.01;25.97
30339;BME280;795;49.296;11.348;2022-08-07T10:51:39;96932.03;;;28.12;27.31
30339;BME280;795;49.296;11.348;2022-08-07T10:54:52;96935.19;;;28.93;26.48
30339;BME280;795;49.296;11.348;2022-08-07T10:57:54;96932.28;;;28.58;27.19
30339;BME280;795;49.296;11.348;2022-08-07T11:00:33;96933.81;;;29.01;26.07
30339;BME280;795;49.296;11.348;2022-08-07T11:03:44;96925.69;;;28.64;26.62
30339;BME280;795;49.296;11.348;2022-08-07T11:10:24;96914.91;;;28.10;26.95
30339;BME280;795;49.296;11.348;2022-08-07T11:13:28;96902.72;;;27.64;26.76
30339;BME280;795;49.296;11.348;2022-08-07T11:16:32;96910.75;;;27.66;26.21
30339;BME280;795;49.296;11.348;2022-08-07T11:19:32;96912.81;;;27.49;26.19
30339;BME280;795;49.296;11.348;2022-08-07T11:22:20;96913.81;;;28.11;25.92
30339;BME280;795;49.296;11.348;2022-08-07T11:25:22;96906.63;;;28.10;24.18
30339;BME280;795;49.296;11.348;2022-08-07T11:28:18;96902.66;;;29.35;24.26
30339;BME280;795;49.296;11.348;2022-08-07T11:31:29;96900.97;;;30.10;23.57
30339;BME280;795;49.296;11.348;2022-08-07T11:34:19;96886.34;;;29.64;23.19
30339;BME280;795;49.296;11.348;2022-08-07T11:37:15;96898.19;;;29.04;24.65
30339;BME280;795;49.296;11.348;2022-08-07T11:43:24;96902.63;;;32.01;22.20
30339;BME280;795;49.296;11.348;2022-08-07T11:53:49;96889.06;;;29.99;23.65
30339;BME280;795;49.296;11.348;2022-08-07T11:57:37;96886.88;;;29.36;24.11
30339;BME280;795;49.296;11.348;2022-08-07T12:13:02;96877.00;;;30.54;23.27
30339;BME280;795;49.296;11.348;2022-08-07T12:15:58;96870.63;;;31.80;22.51
30339;BME280;795;49.296;11.348;2022-08-07T12:18:56;96883.13;;;31.78;22.90
30339;BME280;795;49.296;11.348;2022-08-07T12:21:56;96874.69;;;33.25;20.83
30339;BME280;795;49.296;11.348;2022-08-07T12:29:09;96874.56;;;32.93;21.67
30339;BME280;795;49.296;11.348;2022-08-07T12:31:57;96870.41;;;31.72;23.25
30339;BME280;795;49.296;11.348;2022-08-07T12:34:38;96863.13;;;31.42;23.55
30339;BME280;795;49.296;11.348;2022-08-07T12:37:11;96860.38;;;31.03;24.29
30339;BME280;795;49.296;11.348;2022-08-07T12:39:51;96856.38;;;31.58;23.54
30339;BME280;795;49.296;11.348;2022-08-07T12:42:30;96847.66;;;31.36;23.50
30339;BME280;795;49.296;11.348;2022-08-07T12:45:20;96840.22;;;30.88;24.00
30339;BME280;795;49.296;11.348;2022-08-07T12:50:58;96857.09;;;31.35;23.51
30339;BME280;795;49.296;11.348;2022-08-07T12:54:33;96855.41;;;32.49;22.15
30339;BME280;795;49.296;11.348;2022-08-07T12:57:09;96848.69;;;31.50;23.02
30339;BME280;795;49.296;11.348;2022-08-07T12:59:43;96853.69;;;32.29;22.22
30339;BME280;795;49.296;11.348;2022-08-07T13:10:37;96844.59;;;33.27;20.86
30339;BME280;795;49.296;11.348;2022-08-07T13:17:10;96826.16;;;33.31;20.81
30339;BME280;795;49.296;11.348;2022-08-07T13:20:02;96838.56;;;32.40;21.87
30339;BME280;795;49.296;11.348;2022-08-07T13:23:03;96818.31;;;31.25;22.51
30339;BME280;795;49.296;11.348;2022-08-07T13:26:18;96819.19;;;30.81;21.98
30339;BME280;795;49.296;11.348;2022-08-07T13:32:45;96808.13;;;30.23;23.90
30339;BME280;795;49.296;11.348;2022-08-07T13:39:06;96815.22;;;32.18;22.46
30339;BME280;795;49.296;11.348;2022-08-07T13:41:48;96802.59;;;34.01;20.62
30339;BME280;795;49.296;11.348;2022-08-07T13:44:31;96802.84;;;34.59;19.41
30339;BME280;795;49.296;11.348;2022-08-07T13:47:08;96807.84;;;33.76;19.97
30339;BME280;795;49.296;11.348;2022-08-07T13:49:50;96793.41;;;34.01;19.72
30339;BME280;795;49.296;11.348;2022-08-07T13:52:42;96803.50;;;34.79;19.79
30339;BME280;795;49.296;11.348;2022-08-07T13:55:19;96797.03;;;35.94;18.90
30339;BME280;795;49.296;11.348;2022-08-07T13:58:05;96788.59;;;34.61;19.74
30339;BME280;795;49.296;11.348;2022-08-07T14:01:14;96799.41;;;32.79;21.37
30339;BME280;795;49.296;11.348;2022-08-07T14:03:51;96785.53;;;32.13;21.93
30339;BME280;795;49.296;11.348;2022-08-07T14:06:39;96780.53;;;32.57;21.70
30339;BME280;795;49.296;11.348;2022-08-07T14:09:24;96778.84;;;33.77;20.62
30339;BME280;795;49.296;11.348;2022-08-07T14:12:54;96767.75;;;33.45;20.26
30339;BME280;795;49.296;11.348;2022-08-07T14:15:37;96764.81;;;32.24;21.40
30339;BME280;795;49.296;11.348;2022-08-07T14:18:20;96765.66;;;33.36;20.88
30339;BME280;795;49.296;11.348;2022-08-07T14:21:19;96761.56;;;32.41;21.48
30339;BME280;795;49.296;11.348;2022-08-07T14:24:36;96766.25;;;33.66;20.58
30339;BME280;795;49.296;11.348;2022-08-07T14:27:13;96766.06;;;33.89;20.35
30339;BME280;795;49.296;11.348;2022-08-07T14:30:09;96764.22;;;34.89;19.46
30339;BME280;795;49.296;11.348;2022-08-07T14:33:02;96764.41;;;36.12;18.55
30339;BME280;795;49.296;11.348;2022-08-07T14:35:37;96770.91;;;34.65;19.54
30339;BME280;795;49.296;11.348;2022-08-07T14:38:15;96757.63;;;33.35;20.14
30339;BME280;795;49.296;11.348;2022-08-07T14:41:07;96754.75;;;32.52;21.11
30339;BME280;795;49.296;11.348;2022-08-07T14:43:45;96751.38;;;31.36;22.09
30339;BME280;795;49.296;11.348;2022-08-07T14:46:36;96755.19;;;31.12;22.49
30339;BME280;795;49.296;11.348;2022-08-07T14:49:27;96757.00;;;33.06;21.19
30339;BME280;795;49.296;11.348;2022-08-07T14:52:20;96747.81;;;33.97;20.24
30339;BME280;795;49.296;11.348;2022-08-07T14:54:57;96746.44;;;34.62;19.66
30339;BME280;795;49.296;11.348;2022-08-07T14:57:31;96754.75;;;35.34;18.52
30339;BME280;795;49.296;11.348;2022-08-07T15:00:31;96752.41;;;35.05;19.16
30339;BME280;795;49.296;11.348;2022-08-07T15:03:07;96737.31;;;33.48;20.61
30339;BME280;795;49.296;11.348;2022-08-07T15:05:49;96727.06;;;31.76;22.21
30339;BME280;795;49.296;11.348;2022-08-07T15:08:43;96744.72;;;33.07;21.47
30339;BME280;795;49.296;11.348;2022-08-07T15:11:30;96730.13;;;33.15;21.35
30339;BME280;795;49.296;11.348;2022-08-07T15:14:23;96730.06;;;32.50;21.67
30339;BME280;795;49.296;11.348;2022-08-07T15:17:03;96740.53;;;32.91;21.30
30339;BME280;795;49.296;11.348;2022-08-07T15:19:55;96732.16;;;33.09;21.32
30339;BME280;795;49.296;11.348;2022-08-07T15:22:50;96737.13;;;33.12;21.36
30339;BME280;795;49.296;11.348;2022-08-07T15:25:33;96737.25;;;31.62;22.50
30339;BME280;795;49.296;11.348;2022-08-07T15:28:29;96735.81;;;33.23;21.27
30339;BME280;795;49.296;11.348;2022-08-07T15:31:25;96710.16;;;32.94;21.40
30339;BME280;795;49.296;11.348;2022-08-07T15:34:16;96727.25;;;33.06;21.53
30339;BME280;795;49.296;11.348;2022-08-07T15:36:48;96722.31;;;33.63;21.15
30339;BME280;795;49.296;11.348;2022-08-07T15:39:46;96728.34;;;35.18;19.99
30339;BME280;795;49.296;11.348;2022-08-07T15:45:36;96715.78;;;33.08;21.20
30339;BME280;795;49.296;11.348;2022-08-07T15:48:34;96712.47;;;31.41;22.98
30339;BME280;795;49.296;11.348;2022-08-07T15:51:26;96712.09;;;32.00;22.70
30339;BME280;795;49.296;11.348;2022-08-07T15:54:15;96716.09;;;31.89;23.54
30339;BME280;795;49.296;11.348;2022-08-07T15:56:43;96713.72;;;31.54;23.78
30339;BME280;795;49.296;11.348;2022-08-07T15:59:18;96709.03;;;30.58;24.97
30339;BME280;795;49.296;11.348;2022-08-07T16:02:26;96708.88;;;29.76;25.93
30339;BME280;795;49.296;11.348;2022-08-07T16:05:10;96702.28;;;30.26;24.72
30339;BME280;795;49.296;11.348;2022-08-07T16:07:52;96716.03;;;31.94;23.46
30339;BME280;795;49.296;11.348;2022-08-07T16:10:50;96707.44;;;31.20;24.47
30339;BME280;795;49.296;11.348;2022-08-07T16:16:21;96705.00;;;30.41;25.23
30339;BME280;795;49.296;11.348;2022-08-07T16:29:27;96705.91;;;30.21;25.15
30339;BME280;795;49.296;11.348;2022-08-07T16:32:28;96685.81;;;29.21;26.35
30339;BME280;795;49.296;11.348;2022-08-07T16:35:22;96696.56;;;29.38;26.51
30339;BME280;795;49.296;11.348;2022-08-07T16:38:35;96690.81;;;28.39;27.42
30339;BME280;795;49.296;11.348;2022-08-07T16:45:16;96691.84;;;28.02;27.52
30339;BME280;795;49.296;11.348;2022-08-07T16:59:59;96697.41;;;28.33;27.65
30339;BME280;795;49.296;11.348;2022-08-07T17:06:28;96706.41;;;27.98;28.29
30339;BME280;795;49.296;11.348;2022-08-07T17:09:27;96702.06;;;28.12;27.97